Time;durP1;ratioP1;P1;durP2;ratioP2;P2;SDS_P1;SDS_P2;PMS_P1;PMS_P2;Temp;Humidity;BMP_temperature;BMP_pressure;BME280_temperature;BME280_humidity;BME280_pressure;Samples;Min_cycle;Max_cycle;Signal;HPM_P1;HPM_P2
2023/06/21 00:00:38;;;;;;;13.52;12.13;;;19.80;99.90;;;;;;5092893;28;20388;-65
2023/06/21 00:03:05;;;;;;;13.65;12.18;;;19.90;99.90;;;;;;5093441;28;20043;-65
2023/06/21 00:05:31;;;;;;;13.80;12.20;;;19.80;99.90;;;;;;5093526;28;20044;-64
2023/06/21 00:07:58;;;;;;;13.55;11.95;;;19.80;99.90;;;;;;5093567;28;20073;-64
2023/06/21 00:10:27;;;;;;;14.73;12.85;;;19.80;99.90;;;;;;5092565;28;20371;-64
2023/06/21 00:12:53;;;;;;;13.35;11.95;;;19.70;99.90;;;;;;5093252;28;20054;-64
2023/06/21 00:15:20;;;;;;;17.25;12.90;;;19.70;99.90;;;;;;5093366;28;20056;-64
2023/06/21 00:17:47;;;;;;;15.13;13.55;;;19.70;99.90;;;;;;5093367;28;20109;-65
2023/06/21 00:20:14;;;;;;;15.45;13.90;;;19.70;99.90;;;;;;5093064;28;20079;-64
2023/06/21 00:22:45;;;;;;;15.05;13.57;;;19.70;99.90;;;;;;5092410;28;20048;-65
2023/06/21 00:25:12;;;;;;;15.93;14.18;;;19.60;99.90;;;;;;5093335;28;20063;-64
2023/06/21 00:27:39;;;;;;;15.93;13.40;;;19.60;99.90;;;;;;5093199;28;20070;-65
2023/06/21 00:30:06;;;;;;;16.27;14.57;;;19.60;99.90;;;;;;5092615;28;20097;-64
2023/06/21 00:32:32;;;;;;;17.27;14.35;;;19.50;99.90;;;;;;5092545;28;20048;-64
2023/06/21 00:34:59;;;;;;;15.55;13.90;;;19.60;99.90;;;;;;5092338;28;20466;-64
2023/06/21 00:37:28;;;;;;;17.85;14.23;;;19.60;99.90;;;;;;5092427;28;20059;-64
2023/06/21 00:39:54;;;;;;;16.33;14.63;;;19.50;99.90;;;;;;5092387;28;20408;-65
2023/06/21 00:42:21;;;;;;;18.35;15.65;;;19.40;99.90;;;;;;5092108;28;20496;-65
2023/06/21 00:44:47;;;;;;;19.15;15.15;;;19.50;99.90;;;;;;5092897;28;20048;-64
2023/06/21 00:47:13;;;;;;;17.85;15.40;;;19.40;99.90;;;;;;5092677;28;20040;-64
2023/06/21 00:49:39;;;;;;;17.48;15.57;;;19.40;99.90;;;;;;5092493;28;20040;-64
2023/06/21 00:52:06;;;;;;;18.17;16.23;;;19.40;99.90;;;;;;5092114;28;20048;-65
2023/06/21 00:54:34;;;;;;;16.80;14.98;;;19.30;99.90;;;;;;5092809;28;20044;-65
2023/06/21 00:57:02;;;;;;;17.75;15.82;;;19.30;99.90;;;;;;5092788;28;20047;-66
2023/06/21 00:59:28;;;;;;;20.83;16.02;;;19.20;99.90;;;;;;5092549;28;20052;-63
2023/06/21 01:01:55;;;;;;;18.80;16.15;;;19.20;99.90;;;;;;5091814;28;20055;-64
2023/06/21 01:04:28;;;;;;;20.35;16.83;;;19.20;99.90;;;;;;5092496;28;20117;-65
2023/06/21 01:07:27;;;;;;;18.85;16.60;;;19.20;99.90;;;;;;5092401;28;20052;-64
2023/06/21 01:10:12;;;;;;;18.55;16.58;;;19.20;99.90;;;;;;5092182;28;20051;-63
2023/06/21 01:13:03;;;;;;;18.73;16.75;;;19.10;99.90;;;;;;5091769;28;20048;-64
2023/06/21 01:15:38;;;;;;;19.40;17.00;;;19.20;99.90;;;;;;5092618;28;20054;-64
2023/06/21 01:18:06;;;;;;;21.30;17.38;;;19.10;99.90;;;;;;5092393;28;20047;-64
2023/06/21 01:20:36;;;;;;;21.25;16.42;;;19.20;99.90;;;;;;5091315;28;20456;-64
2023/06/21 01:23:38;;;;;;;20.95;17.45;;;19.10;99.90;;;;;;5091799;28;20361;-64
2023/06/21 01:26:29;;;;;;;20.73;17.92;;;19.20;99.90;;;;;;5092280;28;20052;-64
2023/06/21 01:29:14;;;;;;;22.50;18.85;;;19.20;99.90;;;;;;5091786;28;20112;-63
2023/06/21 01:31:43;;;;;;;22.23;18.02;;;19.20;99.90;;;;;;5091050;28;20059;-66
2023/06/21 01:34:10;;;;;;;23.48;18.42;;;19.10;99.90;;;;;;5091932;28;20044;-64
2023/06/21 01:36:39;;;;;;;23.77;19.48;;;19.20;99.90;;;;;;5091519;28;20431;-64
2023/06/21 01:39:08;;;;;;;22.98;19.75;;;19.10;99.90;;;;;;5092075;28;20052;-65
2023/06/21 01:41:35;;;;;;;24.77;21.95;;;19.10;99.90;;;;;;5091518;28;20071;-64
2023/06/21 01:44:03;;;;;;;23.77;19.95;;;19.00;99.90;;;;;;5092124;28;20052;-64
2023/06/21 01:46:30;;;;;;;27.10;21.23;;;19.00;99.90;;;;;;5092035;28;20048;-63
2023/06/21 01:48:59;;;;;;;24.70;20.65;;;19.00;99.90;;;;;;5096112;28;20117;-64
2023/06/21 01:51:26;;;;;;;27.58;22.02;;;19.20;99.90;;;;;;5095116;28;20117;-64
2023/06/21 01:53:53;;;;;;;26.38;21.33;;;19.20;99.90;;;;;;5096039;28;20192;-65
2023/06/21 01:56:21;;;;;;;27.52;21.80;;;19.20;99.90;;;;;;5095920;28;20048;-64
2023/06/21 01:58:48;;;;;;;29.85;22.83;;;19.20;99.90;;;;;;5096037;28;20048;-64
2023/06/21 02:01:17;;;;;;;28.42;22.92;;;19.10;99.90;;;;;;5095491;28;20448;-64
2023/06/21 02:03:51;;;;;;;29.42;24.40;;;19.20;99.90;;;;;;5095638;28;20143;-64
2023/06/21 02:06:20;;;;;;;31.15;25.58;;;19.30;99.90;;;;;;5095565;28;20063;-64
2023/06/21 02:08:49;;;;;;;31.58;26.10;;;19.20;99.90;;;;;;5095746;28;20059;-64
2023/06/21 02:11:15;;;;;;;31.10;24.73;;;19.20;99.90;;;;;;5094977;28;20442;-63
2023/06/21 02:13:42;;;;;;;30.52;25.70;;;19.30;99.90;;;;;;5095408;28;20052;-65
2023/06/21 02:16:08;;;;;;;31.52;25.13;;;19.20;99.90;;;;;;5095569;28;20108;-64
2023/06/21 02:18:35;;;;;;;29.35;24.80;;;19.30;99.90;;;;;;5095647;28;20044;-64
2023/06/21 02:21:01;;;;;;;30.98;24.10;;;19.30;99.90;;;;;;5095036;28;20105;-63
2023/06/21 02:23:28;;;;;;;30.20;25.55;;;19.30;99.90;;;;;;5095307;28;20472;-64
2023/06/21 02:25:54;;;;;;;30.42;25.23;;;19.20;99.90;;;;;;5095003;28;20384;-64
2023/06/21 02:28:20;;;;;;;28.83;25.27;;;19.20;99.90;;;;;;5095236;28;20048;-64
2023/06/21 02:30:47;;;;;;;32.72;26.08;;;19.10;99.90;;;;;;5094352;28;20052;-64
2023/06/21 02:33:13;;;;;;;31.73;24.73;;;19.00;99.90;;;;;;5094989;28;20343;-64
2023/06/21 02:35:39;;;;;;;32.60;25.38;;;19.00;99.90;;;;;;5094959;28;20054;-64
2023/06/21 02:38:06;;;;;;;31.40;24.35;;;18.90;99.90;;;;;;5095574;28;20051;-64
2023/06/21 02:40:32;;;;;;;29.77;25.00;;;19.00;99.90;;;;;;5094717;28;20044;-64
2023/06/21 02:42:59;;;;;;;33.38;24.95;;;18.90;99.90;;;;;;5094696;28;20052;-64
2023/06/21 02:45:25;;;;;;;30.98;25.80;;;18.90;99.90;;;;;;5094896;28;20052;-65
2023/06/21 02:47:51;;;;;;;30.13;25.63;;;18.90;99.90;;;;;;5094745;28;20486;-65
2023/06/21 02:50:18;;;;;;;31.92;25.45;;;19.00;99.90;;;;;;5094159;28;20052;-64
2023/06/21 02:52:44;;;;;;;31.88;26.17;;;18.80;99.90;;;;;;5094714;28;20074;-63
2023/06/21 02:55:11;;;;;;;32.78;25.98;;;18.70;99.90;;;;;;5094940;28;20044;-64
2023/06/21 02:57:37;;;;;;;36.30;27.27;;;18.80;99.90;;;;;;5094664;28;20395;-64
2023/06/21 03:00:18;;;;;;;31.52;25.65;;;18.70;99.90;;;;;;5094133;28;20040;-63
2023/06/21 03:02:45;;;;;;;33.33;26.92;;;18.70;99.90;;;;;;5094607;28;20044;-64
2023/06/21 03:05:12;;;;;;;34.33;26.95;;;18.70;99.90;;;;;;5094416;28;20054;-63
2023/06/21 03:07:43;;;;;;;33.60;27.13;;;18.70;99.90;;;;;;5094633;28;20509;-64
2023/06/21 03:10:14;;;;;;;34.60;26.42;;;18.70;99.90;;;;;;5094135;28;20052;-64
2023/06/21 03:12:41;;;;;;;32.92;26.95;;;18.70;99.90;;;;;;5093256;28;20440;-64
2023/06/21 03:15:09;;;;;;;32.28;26.05;;;18.70;99.90;;;;;;5094499;28;20370;-63
2023/06/21 03:17:36;;;;;;;36.20;27.92;;;18.70;99.90;;;;;;5094492;28;20097;-64
2023/06/21 03:20:08;;;;;;;35.20;27.50;;;18.70;99.90;;;;;;5094378;28;20040;-63
2023/06/21 03:22:35;;;;;;;34.22;28.60;;;18.60;99.90;;;;;;5094402;28;20109;-64
2023/06/21 03:25:01;;;;;;;34.15;27.98;;;18.70;99.90;;;;;;5094199;28;20379;-64
2023/06/21 03:27:27;;;;;;;37.78;28.48;;;18.70;99.90;;;;;;5094334;28;20073;-63
2023/06/21 03:29:53;;;;;;;35.30;28.70;;;18.70;99.90;;;;;;5093899;28;20047;-63
2023/06/21 03:32:20;;;;;;;35.53;28.52;;;18.60;99.90;;;;;;5092780;28;20105;-64
2023/06/21 03:34:46;;;;;;;37.10;29.42;;;18.60;99.90;;;;;;5094083;28;20048;-64
2023/06/21 03:37:12;;;;;;;38.28;29.85;;;18.60;99.90;;;;;;5093905;28;20453;-64
2023/06/21 03:39:39;;;;;;;37.63;30.85;;;18.60;99.90;;;;;;5094072;28;20106;-63
2023/06/21 03:42:05;;;;;;;36.97;29.85;;;18.60;99.90;;;;;;5093461;28;20116;-64
2023/06/21 03:44:31;;;;;;;40.28;30.48;;;18.60;99.90;;;;;;5094037;28;20383;-66
2023/06/21 03:46:58;;;;;;;40.72;29.63;;;18.60;99.90;;;;;;5093943;28;20056;-64
2023/06/21 03:49:24;;;;;;;40.33;32.05;;;18.60;99.90;;;;;;5093823;28;20166;-63
2023/06/21 03:51:51;;;;;;;39.83;31.52;;;18.70;99.90;;;;;;5092684;28;20109;-64
2023/06/21 03:54:17;;;;;;;42.65;33.35;;;18.60;99.90;;;;;;5093723;28;20109;-64
2023/06/21 03:56:43;;;;;;;41.00;31.15;;;18.60;99.90;;;;;;5093656;28;20048;-64
2023/06/21 03:59:09;;;;;;;42.63;31.42;;;18.70;99.90;;;;;;5093710;28;20055;-65
2023/06/21 04:01:36;;;;;;;41.40;31.98;;;18.70;99.90;;;;;;5093065;28;20052;-63
2023/06/21 04:04:02;;;;;;;40.70;31.13;;;18.70;99.90;;;;;;5093608;28;20044;-64
2023/06/21 04:06:28;;;;;;;41.95;32.40;;;18.70;99.90;;;;;;5093237;28;20047;-64
2023/06/21 04:08:55;;;;;;;41.50;31.83;;;18.70;99.90;;;;;;5093384;28;20052;-64
2023/06/21 04:11:21;;;;;;;42.58;31.58;;;18.80;99.90;;;;;;5091865;28;20048;-64
2023/06/21 04:13:48;;;;;;;42.58;32.70;;;18.80;99.90;;;;;;5093002;28;20060;-63
2023/06/21 04:16:14;;;;;;;46.22;33.33;;;18.80;99.90;;;;;;5092934;28;20468;-63
2023/06/21 04:18:40;;;;;;;44.30;31.75;;;18.80;99.90;;;;;;5093162;28;20537;-64
2023/06/21 04:21:07;;;;;;;42.95;32.95;;;18.80;99.90;;;;;;5092111;28;20476;-65
2023/06/21 04:23:34;;;;;;;43.20;32.22;;;18.80;99.90;;;;;;5093015;28;20108;-64
2023/06/21 04:26:00;;;;;;;43.97;34.00;;;18.90;99.90;;;;;;5093149;28;20052;-64
2023/06/21 04:28:26;;;;;;;44.00;33.28;;;18.90;99.90;;;;;;5092833;28;20044;-64
2023/06/21 04:30:55;;;;;;;44.28;33.17;;;19.00;99.90;;;;;;5092068;28;20070;-64
2023/06/21 04:33:31;;;;;;;44.80;35.55;;;19.00;99.90;;;;;;5089206;27;20419;-62
2023/06/21 04:35:57;;;;;;;45.10;34.60;;;19.00;99.90;;;;;;5089322;28;20097;-64
2023/06/21 04:38:23;;;;;;;40.67;32.70;;;19.10;99.90;;;;;;5089405;28;20109;-63
2023/06/21 04:40:51;;;;;;;47.58;35.95;;;19.10;99.90;;;;;;5089074;28;20052;-64
2023/06/21 04:43:18;;;;;;;47.30;34.65;;;19.20;99.90;;;;;;5089238;28;20050;-63
2023/06/21 04:45:48;;;;;;;45.72;34.72;;;19.10;99.90;;;;;;5088864;28;20032;-63
2023/06/21 04:48:14;;;;;;;43.88;35.05;;;19.20;99.90;;;;;;5086220;28;20044;-63
2023/06/21 04:50:45;;;;;;;45.63;36.83;;;19.30;99.90;;;;;;5087902;28;20554;-63
2023/06/21 04:53:12;;;;;;;43.42;35.15;;;19.30;99.90;;;;;;5085357;28;20036;-62
2023/06/21 04:55:42;;;;;;;43.17;34.38;;;19.30;99.90;;;;;;5087861;28;20044;-63
2023/06/21 04:58:09;;;;;;;45.05;34.83;;;19.30;99.90;;;;;;5087266;28;20082;-63
2023/06/21 05:00:36;;;;;;;44.08;34.35;;;19.40;99.90;;;;;;5085342;28;20082;-64
2023/06/21 05:03:03;;;;;;;45.20;35.53;;;19.60;99.90;;;;;;5087453;28;20040;-64
2023/06/21 05:05:29;;;;;;;44.63;34.50;;;19.70;99.90;;;;;;5088447;28;20040;-63
2023/06/21 05:07:56;;;;;;;42.72;32.92;;;20.10;99.90;;;;;;5088531;28;20064;-65
2023/06/21 05:10:26;;;;;;;44.03;33.50;;;20.50;99.90;;;;;;5088110;28;20048;-63
2023/06/21 05:12:52;;;;;;;40.33;32.42;;;21.00;99.90;;;;;;5087356;28;20044;-64
2023/06/21 05:15:18;;;;;;;44.28;33.40;;;21.30;99.90;;;;;;5087500;28;20054;-62
2023/06/21 05:17:45;;;;;;;38.47;30.88;;;21.70;99.90;;;;;;5088560;28;20106;-64
2023/06/21 05:20:11;;;;;;;38.70;31.52;;;22.00;99.90;;;;;;5088093;28;20488;-63
2023/06/21 05:22:37;;;;;;;37.72;30.45;;;22.40;99.90;;;;;;5087866;28;20407;-63
2023/06/21 05:25:04;;;;;;;38.08;31.05;;;22.30;99.90;;;;;;5088702;28;20048;-64
2023/06/21 05:27:30;;;;;;;38.58;30.83;;;22.10;99.90;;;;;;5088661;28;20060;-63
2023/06/21 05:29:57;;;;;;;36.42;29.48;;;21.90;99.90;;;;;;5087992;28;20086;-64
2023/06/21 05:32:25;;;;;;;35.75;28.77;;;21.90;99.90;;;;;;5087743;28;20048;-63
2023/06/21 05:34:53;;;;;;;34.08;27.92;;;22.00;99.90;;;;;;5088198;28;20114;-65
2023/06/21 05:37:22;;;;;;;32.47;27.40;;;22.30;99.90;;;;;;5088279;28;20048;-64
2023/06/21 05:39:49;;;;;;;33.92;28.15;;;22.30;99.90;;;;;;5088174;28;20055;-64
2023/06/21 05:42:15;;;;;;;35.38;26.52;;;22.40;99.90;;;;;;5088114;28;20097;-63
2023/06/21 05:44:41;;;;;;;32.15;26.90;;;22.40;99.90;;;;;;5074837;28;20053;-64
2023/06/21 05:47:07;;;;;;;31.95;26.58;;;22.40;99.90;;;;;;5074769;28;20052;-64
2023/06/21 05:49:41;;;;;;;32.72;25.95;;;22.50;99.90;;;;;;5074782;28;20090;-64
2023/06/21 05:52:08;;;;;;;32.50;26.80;;;22.60;99.90;;;;;;5073779;28;20338;-64
2023/06/21 05:54:34;;;;;;;29.75;25.33;;;22.70;99.90;;;;;;5074701;28;20048;-65
2023/06/21 05:57:05;;;;;;;30.20;25.35;;;22.90;99.90;;;;;;5073820;28;20480;-64
2023/06/21 05:59:32;;;;;;;32.72;24.45;;;22.80;99.90;;;;;;5074334;28;20041;-63
2023/06/21 06:01:58;;;;;;;28.98;24.17;;;23.20;99.90;;;;;;5074073;28;20051;-62
2023/06/21 06:04:24;;;;;;;30.17;25.63;;;23.30;99.90;;;;;;5074031;28;20118;-65
2023/06/21 06:06:50;;;;;;;28.92;23.23;;;23.40;99.90;;;;;;5073617;28;20377;-66
2023/06/21 06:09:17;;;;;;;24.80;22.08;;;23.50;99.90;;;;;;5074045;28;20515;-65
2023/06/21 06:11:43;;;;;;;25.52;21.25;;;23.10;99.90;;;;;;5073584;28;20045;-64
2023/06/21 06:14:10;;;;;;;26.20;21.63;;;23.30;99.90;;;;;;5073890;28;20045;-63
2023/06/21 06:16:38;;;;;;;23.83;19.38;;;23.50;99.90;;;;;;5073599;28;20045;-64
2023/06/21 06:19:05;;;;;;;25.60;22.88;;;23.20;99.90;;;;;;5071207;28;20040;-64
2023/06/21 06:21:31;;;;;;;24.35;19.98;;;23.20;99.90;;;;;;5073308;28;20074;-65
2023/06/21 06:23:57;;;;;;;24.25;19.15;;;23.30;99.90;;;;;;5073344;28;20045;-64
2023/06/21 06:26:25;;;;;;;30.48;20.20;;;23.50;99.90;;;;;;5073174;28;20103;-63
2023/06/21 06:28:53;;;;;;;23.38;19.33;;;24.00;99.90;;;;;;5073736;28;20048;-65
2023/06/21 06:31:24;;;;;;;24.33;19.90;;;24.90;99.90;;;;;;5073292;28;20059;-65
2023/06/21 06:33:50;;;;;;;;;;;25.50;99.90;;;;;;5073703;28;20432;-63
2023/06/21 06:36:17;;;;;;;23.23;19.50;;;25.70;99.90;;;;;;5072545;28;19930;-65
2023/06/21 06:38:46;;;;;;;39.35;23.20;;;25.80;99.90;;;;;;5073487;28;20384;-65
2023/06/21 06:41:12;;;;;;;28.05;18.15;;;26.10;99.90;;;;;;5073457;28;20056;-63
2023/06/21 06:43:40;;;;;;;21.35;17.75;;;26.30;99.90;;;;;;5073008;28;20053;-65
2023/06/21 06:46:07;;;;;;;22.17;17.40;;;25.80;99.90;;;;;;5055170;28;20056;-65
2023/06/21 06:48:34;;;;;;;36.42;16.67;;;26.10;99.90;;;;;;5073572;28;20194;-65
2023/06/21 06:51:00;;;;;;;31.92;17.33;;;26.30;99.90;;;;;;5072958;28;20060;-64
2023/06/21 06:53:26;;;;;;;46.92;18.23;;;26.10;99.90;;;;;;5072726;28;20048;-65
2023/06/21 06:55:55;;;;;;;31.58;16.50;;;26.50;99.90;;;;;;5071803;28;20045;-65
2023/06/21 06:58:21;;;;;;;77.82;35.22;;;26.70;99.90;;;;;;5072290;28;20471;-65
2023/06/21 07:00:48;;;;;;;21.40;17.15;;;26.40;99.90;;;;;;5072066;28;20496;-64
2023/06/21 07:03:14;;;;;;;26.52;17.10;;;25.80;99.90;;;;;;5054447;28;20110;-64
2023/06/21 07:05:47;;;;;;;20.70;15.50;;;25.40;99.90;;;;;;5072446;28;20067;-64
2023/06/21 07:08:14;;;;;;;18.67;14.15;;;25.00;99.90;;;;;;5072555;28;20044;-63
2023/06/21 07:10:43;;;;;;;19.65;15.85;;;24.40;99.90;;;;;;5073200;28;20056;-63
2023/06/21 07:13:10;;;;;;;28.35;19.23;;;24.30;99.90;;;;;;5070394;28;20044;-65
2023/06/21 07:15:36;;;;;;;22.63;14.60;;;23.90;99.90;;;;;;5072088;28;20044;-63
2023/06/21 07:18:02;;;;;;;17.10;15.30;;;23.90;99.90;;;;;;5072646;28;20449;-63
2023/06/21 07:20:30;;;;;;;16.52;14.65;;;23.80;99.90;;;;;;5072421;28;20103;-64
2023/06/21 07:22:56;;;;;;;16.85;14.90;;;23.90;99.90;;;;;;5072139;28;20114;-64
2023/06/21 07:25:23;;;;;;;17.23;13.05;;;24.10;99.90;;;;;;5063956;28;20049;-64
2023/06/21 07:27:49;;;;;;;15.90;13.65;;;24.40;99.90;;;;;;5067891;28;20052;-64
2023/06/21 07:30:18;;;;;;;16.35;12.73;;;24.40;99.90;;;;;;5055204;28;20048;-64
2023/06/21 07:32:47;;;;;;;15.70;13.25;;;24.70;99.90;;;;;;5071861;28;20110;-64
2023/06/21 07:35:14;;;;;;;15.88;13.18;;;24.80;99.90;;;;;;5071735;28;20059;-63
2023/06/21 07:37:45;;;;;;;15.75;14.13;;;24.60;99.90;;;;;;5072432;28;20044;-63
2023/06/21 07:40:13;;;;;;;14.48;13.02;;;24.30;99.90;;;;;;5072283;28;20060;-64
2023/06/21 07:42:39;;;;;;;16.58;13.73;;;24.30;99.90;;;;;;5071957;28;20044;-63
2023/06/21 07:45:06;;;;;;;16.48;13.60;;;24.40;99.90;;;;;;5071736;28;20060;-65
2023/06/21 07:47:32;;;;;;;16.73;12.52;;;24.00;99.90;;;;;;5071853;28;20362;-64
2023/06/21 07:49:59;;;;;;;14.98;12.55;;;24.00;99.90;;;;;;5072052;28;20464;-63
2023/06/21 07:52:25;;;;;;;14.32;12.82;;;24.00;99.90;;;;;;5053868;28;20548;-64
2023/06/21 07:54:52;;;;;;;15.13;13.63;;;24.20;99.90;;;;;;5071311;28;20056;-64
2023/06/21 07:57:18;;;;;;;15.55;12.55;;;24.20;99.90;;;;;;5071898;28;20048;-65
2023/06/21 07:59:45;;;;;;;13.95;12.45;;;24.40;99.90;;;;;;5071957;28;20500;-63
2023/06/21 08:02:17;;;;;;;16.02;13.95;;;24.50;99.90;;;;;;5071768;28;20073;-64
2023/06/21 08:04:44;;;;;;;14.57;13.07;;;24.50;99.90;;;;;;5071642;28;20060;-63
2023/06/21 08:07:10;;;;;;;17.00;12.68;;;24.60;99.90;;;;;;5071814;28;20110;-61
2023/06/21 08:09:37;;;;;;;14.32;12.75;;;24.60;99.90;;;;;;5071810;28;20110;-63
2023/06/21 08:12:03;;;;;;;22.70;12.82;;;24.60;99.90;;;;;;5071642;28;20048;-61
2023/06/21 08:14:30;;;;;;;21.77;13.68;;;24.50;99.90;;;;;;5071573;28;20464;-63
2023/06/21 08:16:56;;;;;;;29.33;13.20;;;24.60;99.90;;;;;;5071584;28;20048;-62
2023/06/21 08:19:23;;;;;;;36.13;13.82;;;24.90;99.90;;;;;;5063210;28;20236;-61
2023/06/21 08:21:50;;;;;;;18.65;12.15;;;24.70;99.90;;;;;;5071323;28;20041;-63
2023/06/21 08:24:16;;;;;;;16.60;11.50;;;24.90;99.90;;;;;;5053663;28;20350;-63
2023/06/21 08:26:45;;;;;;;26.35;12.93;;;24.80;99.90;;;;;;5068428;28;20060;-62
2023/06/21 08:29:11;;;;;;;14.20;10.50;;;24.80;99.90;;;;;;5069929;28;20387;-64
2023/06/21 08:31:37;;;;;;;13.60;10.63;;;24.80;99.90;;;;;;5071598;28;20052;-63
2023/06/21 08:34:03;;;;;;;11.10;9.93;;;24.70;99.90;;;;;;5071605;28;20110;-61
2023/06/21 08:36:30;;;;;;;14.68;10.80;;;24.70;99.90;;;;;;5053627;28;20048;-63
2023/06/21 08:38:56;;;;;;;13.70;12.27;;;24.80;99.90;;;;;;5071737;28;20075;-64
2023/06/21 08:41:24;;;;;;;14.90;11.90;;;24.80;99.90;;;;;;5071531;28;20052;-64
2023/06/21 08:43:50;;;;;;;16.70;12.55;;;24.70;99.90;;;;;;5053904;28;20049;-64
2023/06/21 08:46:24;;;;;;;13.55;10.20;;;24.70;99.90;;;;;;5071259;28;20084;-63
2023/06/21 08:48:57;;;;;;;13.38;9.93;;;24.50;99.90;;;;;;5071367;28;20432;-62
2023/06/21 08:51:25;;;;;;;11.57;9.80;;;24.40;99.90;;;;;;5071190;28;20060;-63
2023/06/21 08:54:00;;;;;;;13.15;10.07;;;24.40;99.90;;;;;;5036990;28;20052;-63
2023/06/21 08:56:30;;;;;;;22.13;11.18;;;24.60;99.90;;;;;;5071068;28;20044;-63
2023/06/21 08:59:03;;;;;;;16.55;10.93;;;24.80;99.90;;;;;;5071477;28;20143;-64
2023/06/21 09:01:37;;;;;;;23.70;18.70;;;25.00;99.90;;;;;;5071160;28;20350;-64
2023/06/21 09:04:06;;;;;;;15.13;11.32;;;25.10;99.90;;;;;;5071101;28;20430;-64
2023/06/21 09:06:33;;;;;;;12.27;9.85;;;25.40;99.90;;;;;;5071306;28;20060;-62
2023/06/21 09:09:00;;;;;;;12.07;9.50;;;25.30;99.90;;;;;;5071668;28;20049;-64
2023/06/21 09:11:26;;;;;;;27.52;12.80;;;25.50;99.90;;;;;;5070936;28;20457;-63
2023/06/21 09:13:53;;;;;;;10.63;7.72;;;25.40;99.90;;;;;;5070695;28;20044;-62
2023/06/21 09:16:19;;;;;;;11.82;7.05;;;25.80;99.90;;;;;;5070587;28;20048;-65
2023/06/21 09:18:46;;;;;;;16.70;9.55;;;25.80;99.90;;;;;;5054607;28;20397;-64
2023/06/21 09:21:13;;;;;;;11.25;8.25;;;25.60;99.90;;;;;;5075135;28;20056;-63
2023/06/21 09:23:40;;;;;;;13.30;7.22;;;25.50;99.90;;;;;;5074515;28;20059;-64
2023/06/21 09:26:11;;;;;;;9.80;7.43;;;25.40;99.90;;;;;;5057053;28;20049;-62
2023/06/21 09:28:38;;;;;;;15.40;6.90;;;25.20;99.90;;;;;;5057227;28;20087;-63
2023/06/21 09:31:06;;;;;;;10.25;6.63;;;25.20;99.90;;;;;;5074547;28;20354;-65
2023/06/21 09:33:36;;;;;;;34.03;20.15;;;25.00;99.90;;;;;;5073276;28;20083;-62
2023/06/21 09:36:07;;;;;;;9.95;6.57;;;25.20;99.90;;;;;;5074430;28;20348;-63
2023/06/21 09:38:35;;;;;;;10.25;6.30;;;25.10;99.90;;;;;;5074906;28;20048;-62
2023/06/21 09:41:03;;;;;;;10.80;6.90;;;25.10;99.90;;;;;;5057184;28;20048;-63
2023/06/21 09:43:30;;;;;;;7.57;4.47;;;25.20;99.90;;;;;;5074584;28;20063;-64
2023/06/21 09:46:11;;;;;;;9.02;4.80;;;25.20;99.90;;;;;;5074190;28;20587;-62
2023/06/21 09:48:39;;;;;;;11.27;8.52;;;25.50;99.90;;;;;;5074342;28;20465;-63
2023/06/21 09:51:14;;;;;;;6.65;4.45;;;25.60;99.90;;;;;;5074343;28;20048;-65
2023/06/21 09:53:45;;;;;;;6.13;4.18;;;25.40;99.90;;;;;;5074191;28;20460;-62
2023/06/21 09:56:16;;;;;;;6.10;4.80;;;25.70;99.90;;;;;;5074047;28;20105;-64
2023/06/21 09:58:43;;;;;;;5.57;4.50;;;25.70;99.90;;;;;;5074433;28;20392;-63
2023/06/21 10:01:14;;;;;;;5.57;5.07;;;26.00;99.90;;;;;;5074586;28;20063;-63
2023/06/21 10:03:45;;;;;;;7.55;5.15;;;25.90;99.90;;;;;;5074364;28;20052;-63
2023/06/21 10:06:16;;;;;;;6.28;4.63;;;25.70;99.90;;;;;;5074524;28;20518;-64
2023/06/21 10:08:43;;;;;;;7.10;4.60;;;25.80;99.90;;;;;;5057437;28;20056;-64
2023/06/21 10:11:10;;;;;;;9.68;5.22;;;25.70;99.90;;;;;;5074361;28;20396;-65
2023/06/21 10:13:38;;;;;;;7.90;5.30;;;25.80;99.90;;;;;;5056270;28;20102;-64
2023/06/21 10:16:05;;;;;;;7.80;6.78;;;25.60;99.90;;;;;;5073934;28;20055;-65
2023/06/21 10:18:32;;;;;;;7.93;6.75;;;25.60;99.90;;;;;;5073880;28;20465;-64
2023/06/21 10:21:04;;;;;;;9.05;7.80;;;25.50;99.90;;;;;;5056038;28;20449;-63
2023/06/21 10:23:42;;;;;;;8.68;7.78;;;25.50;99.90;;;;;;5073112;28;20123;-63
2023/06/21 10:26:14;;;;;;;8.20;7.38;;;25.50;99.90;;;;;;5056441;28;20063;-64
2023/06/21 10:28:45;;;;;;;10.68;8.18;;;25.60;99.90;;;;;;5073817;28;20048;-63
2023/06/21 10:31:12;;;;;;;11.57;7.68;;;25.70;99.90;;;;;;5073453;28;20067;-65
2023/06/21 10:33:39;;;;;;;8.80;7.90;;;26.00;99.90;;;;;;5073401;28;20041;-64
2023/06/21 10:36:11;;;;;;;8.52;7.50;;;26.20;99.90;;;;;;5073191;28;20049;-63
2023/06/21 10:38:46;;;;;;;9.30;7.18;;;26.20;99.90;;;;;;5073760;28;20435;-63
2023/06/21 10:41:14;;;;;;;9.30;8.20;;;26.60;99.90;;;;;;5073611;28;20484;-63
2023/06/21 10:43:44;;;;;;;7.90;6.70;;;26.90;99.90;;;;;;5072762;28;20445;-63
2023/06/21 10:46:11;;;;;;;7.03;5.75;;;27.20;99.90;;;;;;5056017;28;20052;-64
2023/06/21 10:48:38;;;;;;;9.48;7.05;;;27.20;99.90;;;;;;5073487;28;20106;-63
2023/06/21 10:51:05;;;;;;;7.95;6.75;;;26.90;99.90;;;;;;5073361;28;20048;-64
2023/06/21 10:53:33;;;;;;;6.85;6.15;;;27.00;99.90;;;;;;5072797;28;20125;-63
2023/06/21 10:56:05;;;;;;;6.28;5.18;;;27.10;99.90;;;;;;5072992;28;20049;-64
2023/06/21 10:58:31;;;;;;;6.75;5.78;;;27.10;99.90;;;;;;5073130;28;20473;-64
2023/06/21 11:00:59;;;;;;;7.15;5.75;;;27.10;99.90;;;;;;5073205;28;20048;-64
2023/06/21 11:03:26;;;;;;;7.82;7.03;;;26.60;99.90;;;;;;5055291;28;20108;-64
2023/06/21 11:05:56;;;;;;;7.38;6.32;;;26.80;99.90;;;;;;5055011;28;20389;-63
2023/06/21 11:08:36;;;;;;;8.73;7.28;;;26.80;99.90;;;;;;5073110;28;20052;-65
2023/06/21 11:11:03;;;;;;;10.45;7.50;;;27.20;99.90;;;;;;5073298;28;20052;-64
2023/06/21 11:13:37;;;;;;;7.70;6.72;;;27.20;99.90;;;;;;5072636;28;20055;-65
2023/06/21 11:16:17;;;;;;;8.68;7.78;;;27.60;99.90;;;;;;5072631;28;20051;-65
2023/06/21 11:18:55;;;;;;;10.27;7.63;;;27.80;99.90;;;;;;5072776;28;20106;-64
2023/06/21 11:21:47;;;;;;;13.98;10.55;;;27.80;99.90;;;;;;5072459;28;20291;-64
2023/06/21 11:24:16;;;;;;;21.15;18.30;;;27.80;99.90;;;;;;5072358;28;20417;-65
2023/06/21 11:26:58;;;;;;;7.93;6.50;;;27.80;99.90;;;;;;5072101;28;20056;-64
2023/06/21 11:29:39;;;;;;;8.18;6.55;;;27.60;98.90;;;;;;5072526;28;20118;-66
2023/06/21 11:32:12;;;;;;;7.72;6.93;;;27.50;98.90;;;;;;5071093;28;20118;-65
2023/06/21 11:34:56;;;;;;;7.85;5.93;;;27.40;99.60;;;;;;5051981;28;20041;-65
2023/06/21 11:37:40;;;;;;;7.63;5.35;;;27.60;99.10;;;;;;5052582;28;20103;-64
2023/06/21 11:40:11;;;;;;;5.43;4.65;;;27.60;98.80;;;;;;5052562;28;20115;-63
2023/06/21 11:42:48;;;;;;;7.32;6.07;;;27.40;98.40;;;;;;5052218;28;20040;-64
2023/06/21 11:45:27;;;;;;;10.02;4.93;;;27.30;99.20;;;;;;5051926;28;20045;-64
2023/06/21 11:48:03;;;;;;;9.70;6.65;;;27.60;99.20;;;;;;5052448;28;20119;-65
2023/06/21 11:50:43;;;;;;;7.97;6.32;;;27.50;99.40;;;;;;5052067;28;20342;-65
2023/06/21 11:53:14;;;;;;;6.68;6.03;;;27.70;99.90;;;;;;5061846;28;20109;-64
2023/06/21 11:55:41;;;;;;;6.35;5.18;;;27.60;99.70;;;;;;5072015;28;20067;-64
2023/06/21 11:58:08;;;;;;;6.90;5.70;;;27.60;99.00;;;;;;5072258;28;20078;-63
2023/06/21 12:00:36;;;;;;;6.20;4.55;;;27.40;98.30;;;;;;5054534;28;20045;-63
2023/06/21 12:03:03;;;;;;;7.07;5.20;;;27.50;98.60;;;;;;5062827;28;20041;-64
2023/06/21 12:06:02;;;;;;;7.40;5.13;;;27.80;98.80;;;;;;5051644;28;20049;-64
2023/06/21 12:08:35;;;;;;;7.35;5.85;;;27.50;98.20;;;;;;4978758;28;20060;-63
2023/06/21 12:11:02;;;;;;;5.38;3.97;;;27.60;99.20;;;;;;5051549;28;20049;-64
2023/06/21 12:13:30;;;;;;;7.63;4.60;;;27.80;98.40;;;;;;5063969;28;20082;-64
2023/06/21 12:15:59;;;;;;;9.55;4.55;;;27.60;98.20;;;;;;5071671;28;20511;-62
2023/06/21 12:18:27;;;;;;;5.35;4.28;;;27.50;97.90;;;;;;5071982;28;20056;-63
2023/06/21 12:20:54;;;;;;;7.60;4.68;;;27.40;98.10;;;;;;5037769;28;20045;-64
2023/06/21 12:23:22;;;;;;;5.13;4.28;;;27.30;98.40;;;;;;5042715;28;20067;-64
2023/06/21 12:25:52;;;;;;;5.13;4.00;;;27.20;98.60;;;;;;5033713;28;20045;-64
2023/06/21 12:28:21;;;;;;;4.57;4.00;;;27.20;98.70;;;;;;5051496;28;20053;-64
2023/06/21 12:31:00;;;;;;;6.07;4.13;;;27.50;99.10;;;;;;5033859;28;20064;-62
2023/06/21 12:33:28;;;;;;;6.07;4.25;;;27.60;98.60;;;;;;5050812;28;20049;-65
2023/06/21 12:36:21;;;;;;;7.15;4.00;;;27.60;98.10;;;;;;5051220;28;20041;-63
2023/06/21 12:39:02;;;;;;;7.40;3.95;;;27.70;98.30;;;;;;5047633;28;20152;-64
2023/06/21 12:41:30;;;;;;;5.18;4.28;;;27.60;97.70;;;;;;5051856;28;20037;-62